Time;durP1;ratioP1;P1;durP2;ratioP2;P2;SDS_P1;SDS_P2;PMS_P1;PMS_P2;Temp;Humidity;BMP_temperature;BMP_pressure;BME280_temperature;BME280_humidity;BME280_pressure;Samples;Min_cycle;Max_cycle;Signal;HPM_P1;HPM_P2
2022/03/25 00:01:56;;;;;;;52.20;24.75;;;12.80;70.00;;;;;;10485024;28;20076;-64
2022/03/25 00:06:56;;;;;;;51.50;25.13;;;12.80;70.10;;;;;;10473944;28;20367;-64
2022/03/25 00:11:57;;;;;;;49.85;24.85;;;12.80;70.10;;;;;;10487433;28;20511;-64
2022/03/25 00:16:58;;;;;;;51.47;26.08;;;11.90;69.70;;;;;;10487160;28;20024;-64
2022/03/25 00:21:59;;;;;;;59.08;26.13;;;12.70;70.10;;;;;;10484278;28;20451;-65
2022/03/25 00:26:59;;;;;;;55.15;25.35;;;12.60;70.70;;;;;;10466354;28;20027;-66
2022/03/25 00:32:00;;;;;;;51.28;24.73;;;12.60;70.80;;;;;;10484237;28;20045;-65
2022/03/25 00:37:01;;;;;;;56.35;25.45;;;12.60;70.30;;;;;;10456501;28;20123;-65
2022/03/25 00:42:03;;;;;;;53.55;24.83;;;12.50;70.20;;;;;;10485061;28;20136;-66
2022/03/25 00:47:04;;;;;;;54.08;25.70;;;12.50;70.30;;;;;;10485553;28;20039;-65
2022/03/25 00:52:06;;;;;;;52.35;25.52;;;12.50;70.30;;;;;;10480962;28;20036;-65
2022/03/25 00:57:06;;;;;;;53.83;25.00;;;12.50;70.40;;;;;;10486161;28;20075;-64
2022/03/25 01:02:08;;;;;;;53.75;24.10;;;12.40;70.30;;;;;;10483669;28;20079;-65
2022/03/25 01:07:08;;;;;;;52.58;24.45;;;12.40;70.40;;;;;;10460746;28;20037;-64
2022/03/25 01:12:10;;;;;;;50.75;23.95;;;12.30;70.40;;;;;;10485717;28;20105;-64
2022/03/25 01:17:11;;;;;;;54.15;25.17;;;12.30;70.50;;;;;;10485792;28;20036;-65
2022/03/25 01:22:12;;;;;;;53.03;24.92;;;12.30;70.50;;;;;;10483241;28;20020;-64
2022/03/25 01:27:13;;;;;;;52.42;25.08;;;12.20;70.50;;;;;;10492998;28;20029;-64
2022/03/25 01:32:16;;;;;;;52.58;24.45;;;12.20;70.50;;;;;;10489731;28;20635;-65
2022/03/25 01:37:17;;;;;;;52.42;25.30;;;12.20;70.60;;;;;;10480989;28;20025;-64
2022/03/25 01:42:32;;;;;;;56.17;25.83;;;12.10;70.60;;;;;;10492070;28;20028;-66
2022/03/25 01:47:34;;;;;;;55.42;25.50;;;12.10;70.70;;;;;;10491378;28;20383;-65
2022/03/25 01:52:35;;;;;;;52.25;24.70;;;12.10;70.70;;;;;;10488549;28;20090;-65
2022/03/25 01:57:35;;;;;;;55.92;25.95;;;12.00;70.70;;;;;;10491710;28;20101;-64
2022/03/25 02:02:38;;;;;;;53.75;25.15;;;12.00;70.70;;;;;;10489962;28;20048;-65
2022/03/25 02:07:39;;;;;;;53.38;25.02;;;12.00;70.70;;;;;;10480130;28;20030;-62
2022/03/25 02:12:40;;;;;;;54.50;25.83;;;11.90;70.70;;;;;;10491113;28;20048;-65
2022/03/25 02:17:41;;;;;;;52.85;25.05;;;11.90;70.80;;;;;;10461117;28;20021;-64
2022/03/25 02:22:42;;;;;;;53.92;25.15;;;11.90;70.80;;;;;;10489358;28;20441;-65
2022/03/25 02:27:44;;;;;;;57.15;25.65;;;11.90;70.90;;;;;;10491519;28;20036;-65
2022/03/25 02:32:45;;;;;;;54.75;26.40;;;11.80;70.90;;;;;;10489781;28;20031;-64
2022/03/25 02:37:46;;;;;;;53.55;25.05;;;11.80;70.90;;;;;;10491476;28;20036;-65
2022/03/25 02:42:47;;;;;;;53.42;25.40;;;11.80;70.90;;;;;;10489207;28;20041;-64
2022/03/25 02:47:48;;;;;;;56.40;25.08;;;11.70;70.90;;;;;;10491032;28;20078;-65
2022/03/25 02:52:49;;;;;;;52.35;25.55;;;11.70;71.00;;;;;;10487046;28;20033;-66
2022/03/25 02:57:49;;;;;;;52.70;25.55;;;11.70;71.00;;;;;;10482271;28;20545;-64
2022/03/25 03:02:50;;;;;;;55.15;25.60;;;11.60;71.00;;;;;;10487190;28;20053;-64
2022/03/25 03:07:51;;;;;;;53.50;25.58;;;11.60;71.00;;;;;;10475963;28;20403;-63
2022/03/25 03:12:53;;;;;;;50.10;25.10;;;11.60;71.00;;;;;;10489298;28;20044;-63
2022/03/25 03:17:54;;;;;;;53.08;24.67;;;11.60;71.10;;;;;;10467821;28;20399;-65
2022/03/25 03:22:57;;;;;;;49.72;24.45;;;11.50;71.00;;;;;;10486231;28;20031;-65
2022/03/25 03:27:58;;;;;;;51.05;24.98;;;11.50;71.00;;;;;;10447298;28;20028;-65
2022/03/25 03:32:59;;;;;;;50.33;25.30;;;11.50;71.00;;;;;;10488007;28;20044;-65
2022/03/25 03:38:00;;;;;;;50.63;25.13;;;11.40;71.00;;;;;;10488469;28;20115;-65
2022/03/25 03:43:03;;;;;;;53.17;24.30;;;11.40;71.00;;;;;;10488177;28;20396;-64
2022/03/25 03:48:04;;;;;;;48.60;22.73;;;11.40;71.00;;;;;;10487222;28;20039;-65
2022/03/25 03:53:05;;;;;;;49.83;22.92;;;11.30;71.00;;;;;;10484734;28;20037;-65
2022/03/25 03:58:06;;;;;;;48.03;23.15;;;11.30;71.00;;;;;;10485631;28;20029;-65
2022/03/25 04:03:07;;;;;;;46.40;22.25;;;11.30;71.00;;;;;;10485778;28;20063;-65
2022/03/25 04:08:08;;;;;;;49.10;22.42;;;11.30;70.90;;;;;;10474811;28;20024;-66
2022/03/25 04:13:09;;;;;;;44.83;21.40;;;11.20;70.90;;;;;;10485896;28;20811;-65
2022/03/25 04:18:09;;;;;;;46.28;22.40;;;11.20;70.90;;;;;;10486857;28;20429;-64
2022/03/25 04:23:10;;;;;;;45.30;22.25;;;11.20;70.90;;;;;;10485333;28;20325;-65
2022/03/25 04:28:11;;;;;;;43.28;20.90;;;10.60;70.50;;;;;;10485604;28;20024;-64
2022/03/25 04:33:12;;;;;;;48.92;22.30;;;11.10;70.80;;;;;;10496360;28;20044;-65
2022/03/25 04:38:14;;;;;;;50.78;22.90;;;11.10;71.40;;;;;;10486439;28;20029;-65
2022/03/25 04:43:15;;;;;;;47.22;21.13;;;11.00;70.70;;;;;;10485905;28;20189;-66
2022/03/25 04:48:16;;;;;;;42.75;20.40;;;11.00;70.80;;;;;;10485920;28;20158;-64
2022/03/25 04:53:17;;;;;;;41.00;20.80;;;11.00;70.80;;;;;;10483018;28;20032;-65
2022/03/25 04:58:17;;;;;;;42.13;20.38;;;10.90;70.70;;;;;;10484676;28;20021;-65
2022/03/25 05:03:19;;;;;;;39.47;20.17;;;10.90;70.70;;;;;;10472533;28;20060;-64
2022/03/25 05:08:21;;;;;;;37.13;19.20;;;10.90;70.80;;;;;;10482557;28;20105;-63
2022/03/25 05:13:22;;;;;;;35.20;17.40;;;10.90;70.80;;;;;;10494537;28;20048;-65
2022/03/25 05:18:23;;;;;;;35.47;17.33;;;10.90;70.80;;;;;;10482309;28;20462;-65
2022/03/25 05:23:23;;;;;;;41.30;19.80;;;10.80;70.80;;;;;;10492715;28;20119;-66
2022/03/25 05:28:25;;;;;;;39.67;18.58;;;10.80;70.80;;;;;;10494096;28;20112;-64
2022/03/25 05:33:26;;;;;;;32.90;17.65;;;10.80;70.80;;;;;;10488100;28;20127;-66
2022/03/25 05:38:27;;;;;;;36.22;18.17;;;10.80;70.80;;;;;;10492989;28;20582;-66
2022/03/25 05:43:28;;;;;;;35.55;18.13;;;10.70;70.70;;;;;;10494375;28;20030;-65
2022/03/25 05:48:29;;;;;;;38.20;18.33;;;10.70;71.30;;;;;;10493160;28;20033;-65
2022/03/25 05:53:30;;;;;;;35.40;17.27;;;10.70;70.70;;;;;;10487587;28;20036;-66
2022/03/25 05:58:37;;;;;;;34.72;18.10;;;10.60;70.70;;;;;;10491414;28;20468;-64
2022/03/25 06:03:38;;;;;;;33.58;16.45;;;10.60;70.70;;;;;;10488305;28;20135;-64
2022/03/25 06:08:39;;;;;;;30.35;15.95;;;10.60;70.60;;;;;;10486475;28;20103;-65
2022/03/25 06:13:40;;;;;;;33.97;16.50;;;10.60;70.60;;;;;;10492237;28;20394;-65
2022/03/25 06:18:40;;;;;;;31.10;16.55;;;10.60;71.20;;;;;;10490860;28;20041;-64
2022/03/25 06:23:41;;;;;;;34.92;16.58;;;10.60;70.60;;;;;;10490872;28;20070;-65
2022/03/25 06:28:42;;;;;;;32.50;16.67;;;10.60;70.60;;;;;;10492063;28;20466;-64
2022/03/25 06:33:43;;;;;;;34.95;17.35;;;10.60;70.60;;;;;;10490370;28;20062;-63
2022/03/25 06:38:44;;;;;;;36.35;16.80;;;10.60;70.60;;;;;;10491913;28;20090;-63
2022/03/25 06:43:44;;;;;;;33.47;16.65;;;10.50;70.50;;;;;;10465045;28;20473;-64
2022/03/25 06:48:46;;;;;;;31.00;15.50;;;10.50;70.50;;;;;;10490758;28;20401;-64
2022/03/25 06:53:46;;;;;;;32.90;16.55;;;10.50;70.50;;;;;;10486860;28;20262;-65
2022/03/25 06:58:48;;;;;;;31.73;16.48;;;10.50;70.50;;;;;;10489132;28;20039;-65
2022/03/25 07:03:48;;;;;;;31.55;16.33;;;10.50;70.50;;;;;;10490171;28;20044;-63
2022/03/25 07:08:55;;;;;;;32.25;16.65;;;10.50;71.10;;;;;;10487634;28;20021;-65
2022/03/25 07:13:56;;;;;;;33.45;15.80;;;10.50;70.50;;;;;;10481166;28;20402;-63
2022/03/25 07:18:59;;;;;;;28.50;15.05;;;10.60;70.40;;;;;;10480798;28;20499;-65
2022/03/25 07:24:00;;;;;;;31.05;16.15;;;10.60;70.40;;;;;;10489876;28;20052;-64
2022/03/25 07:29:00;;;;;;;31.38;15.77;;;10.70;70.40;;;;;;10489667;28;20071;-64
2022/03/25 07:34:02;;;;;;;29.38;14.93;;;10.70;70.30;;;;;;10473263;28;20044;-68
2022/03/25 07:39:04;;;;;;;28.15;14.27;;;10.80;70.60;;;;;;10477202;28;20028;-67
2022/03/25 07:44:05;;;;;;;29.38;14.50;;;10.90;70.30;;;;;;10479397;28;20090;-67
2022/03/25 07:49:06;;;;;;;29.88;15.30;;;11.00;70.30;;;;;;10485934;28;20032;-68
2022/03/25 07:54:07;;;;;;;30.20;14.27;;;11.00;70.80;;;;;;10479413;28;20071;-60
2022/03/25 07:59:08;;;;;;;32.03;14.82;;;11.10;70.10;;;;;;10487501;28;20454;-69
2022/03/25 08:04:09;;;;;;;28.75;14.43;;;11.20;70.00;;;;;;10488694;28;20057;-66
2022/03/25 08:09:11;;;;;;;27.02;14.23;;;11.20;70.00;;;;;;10486872;28;20513;-66
2022/03/25 08:14:13;;;;;;;27.60;13.05;;;11.30;69.90;;;;;;10476350;28;20063;-60
2022/03/25 08:19:15;;;;;;;28.17;14.30;;;11.40;69.90;;;;;;10457908;28;20027;-60
2022/03/25 08:29:38;;;;;;;24.92;13.05;;;11.40;69.90;;;;;;10455436;28;20078;-60
2022/03/25 08:34:39;;;;;;;26.70;13.10;;;11.50;70.00;;;;;;10448571;28;20036;-58
2022/03/25 08:39:40;;;;;;;27.10;13.05;;;11.50;70.00;;;;;;10432370;28;20076;-61
2022/03/25 08:44:41;;;;;;;25.23;12.32;;;11.50;70.00;;;;;;10454118;28;20032;-62
2022/03/25 08:49:42;;;;;;;27.20;13.07;;;11.50;70.10;;;;;;10474217;28;20028;-58
2022/03/25 08:54:43;;;;;;;25.48;12.73;;;11.50;70.20;;;;;;10464340;28;20415;-60
2022/03/25 08:59:44;;;;;;;26.88;12.65;;;11.50;70.20;;;;;;10473545;28;20020;-68
2022/03/25 09:04:46;;;;;;;22.40;11.57;;;11.60;70.40;;;;;;10465986;28;20063;-72
2022/03/25 09:09:47;;;;;;;24.42;11.07;;;11.60;70.30;;;;;;10470646;28;20029;-64
2022/03/25 09:14:47;;;;;;;24.15;11.93;;;11.60;70.50;;;;;;10474401;28;20040;-69
2022/03/25 09:19:48;;;;;;;25.05;11.18;;;11.60;70.40;;;;;;10482446;28;20399;-68
2022/03/25 09:24:49;;;;;;;21.25;11.30;;;10.90;70.10;;;;;;10467950;28;20055;-68
2022/03/25 09:29:50;;;;;;;21.00;10.80;;;11.70;70.50;;;;;;10468864;28;20344;-69
2022/03/25 09:35:10;;;;;;;22.73;10.82;;;11.70;70.50;;;;;;10484750;28;20641;-66
2022/03/25 09:40:14;;;;;;;25.02;11.73;;;11.80;70.60;;;;;;10452802;28;20033;-70
2022/03/25 09:45:15;;;;;;;30.90;12.30;;;11.80;70.60;;;;;;10450005;28;20046;-70
2022/03/25 09:50:21;;;;;;;26.75;11.93;;;11.90;70.50;;;;;;10478688;28;20063;-65
2022/03/25 09:55:22;;;;;;;22.20;11.40;;;12.00;70.50;;;;;;10489887;28;20131;-69
2022/03/25 10:00:22;;;;;;;25.17;11.40;;;12.00;70.40;;;;;;10490295;28;20120;-67
2022/03/25 10:05:23;;;;;;;21.77;10.35;;;12.10;70.40;;;;;;10483702;28;20155;-69
2022/03/25 10:10:26;;;;;;;23.55;11.15;;;12.10;70.30;;;;;;10491084;28;20012;-69
2022/03/25 10:15:32;;;;;;;23.35;10.23;;;12.20;70.30;;;;;;10489773;28;20089;-70
2022/03/25 10:20:38;;;;;;;21.95;11.00;;;12.30;70.40;;;;;;10488857;28;20044;-68
2022/03/25 10:25:45;;;;;;;21.92;10.35;;;12.40;70.30;;;;;;10489412;28;20353;-70
2022/03/25 10:30:50;;;;;;;25.60;11.60;;;12.50;70.30;;;;;;10488226;28;20377;-65
2022/03/25 10:35:53;;;;;;;25.08;11.30;;;12.60;70.30;;;;;;10488373;28;20068;-70
2022/03/25 10:40:58;;;;;;;27.00;11.35;;;12.70;70.20;;;;;;10474815;28;20024;-70
2022/03/25 10:45:59;;;;;;;21.55;10.38;;;12.70;70.20;;;;;;10481245;28;20028;-66
2022/03/25 10:51:10;;;;;;;25.70;10.10;;;12.80;70.00;;;;;;10478679;28;20024;-70
2022/03/25 10:56:11;;;;;;;20.90;10.07;;;12.90;70.40;;;;;;10476183;28;20074;-69
2022/03/25 11:01:12;;;;;;;37.85;14.82;;;13.00;70.10;;;;;;10486246;28;20057;-70
2022/03/25 11:06:16;;;;;;;39.28;16.50;;;13.10;69.40;;;;;;10470326;28;20391;-69
2022/03/25 11:11:17;;;;;;;38.28;15.85;;;13.30;68.50;;;;;;10469555;28;20402;-69
2022/03/25 11:16:18;;;;;;;33.38;13.90;;;13.40;68.60;;;;;;10489899;28;20033;-69
2022/03/25 11:21:21;;;;;;;31.92;14.13;;;13.40;68.70;;;;;;10471226;28;20021;-66
2022/03/25 11:26:25;;;;;;;31.17;13.35;;;13.50;68.80;;;;;;10473179;28;20051;-66
2022/03/25 11:31:25;;;;;;;27.27;12.82;;;13.50;69.00;;;;;;10486194;28;20032;-68
2022/03/25 11:36:26;;;;;;;28.02;12.98;;;13.60;69.10;;;;;;10486937;28;20649;-67
2022/03/25 11:41:27;;;;;;;33.50;15.63;;;13.60;69.20;;;;;;10485753;28;20107;-68
2022/03/25 11:46:28;;;;;;;38.78;16.95;;;13.80;68.50;;;;;;10485324;28;20025;-69
2022/03/25 11:51:31;;;;;;;43.22;16.65;;;14.00;67.90;;;;;;10471491;28;20047;-71
2022/03/25 11:56:49;;;;;;;40.75;18.02;;;14.10;67.30;;;;;;10476846;28;20059;-70
2022/03/25 12:01:49;;;;;;;38.60;16.80;;;14.40;66.50;;;;;;10471497;28;20556;-71
2022/03/25 12:07:08;;;;;;;40.00;16.33;;;14.70;66.60;;;;;;10448561;28;20201;-70
2022/03/25 12:12:09;;;;;;;38.10;16.23;;;14.80;65.70;;;;;;10462651;28;20039;-69
2022/03/25 12:17:21;;;;;;;37.72;15.75;;;14.80;66.10;;;;;;10480922;28;20037;-69
2022/03/25 12:22:22;;;;;;;43.42;17.02;;;15.00;66.80;;;;;;10480968;28;20036;-69
2022/03/25 12:27:24;;;;;;;33.42;16.05;;;15.10;65.80;;;;;;10483151;28;20583;-71
2022/03/25 12:32:31;;;;;;;36.00;15.25;;;15.20;65.40;;;;;;10482981;28;20574;-71
2022/03/25 12:37:35;;;;;;;33.13;14.93;;;15.30;66.10;;;;;;10484470;28;20036;-69
2022/03/25 12:42:35;;;;;;;36.88;15.45;;;15.40;65.40;;;;;;10477934;28;20695;-72
2022/03/25 12:47:43;;;;;;;36.40;14.02;;;15.50;65.60;;;;;;10449458;28;20119;-65
2022/03/25 12:52:44;;;;;;;32.10;13.82;;;15.60;65.80;;;;;;10444641;28;20483;-72
2022/03/25 12:57:45;;;;;;;41.55;14.98;;;15.70;64.80;;;;;;10448509;28;20033;-68
2022/03/25 13:02:46;;;;;;;35.10;14.63;;;15.80;64.20;;;;;;10472232;28;20049;-72
2022/03/25 13:07:58;;;;;;;37.53;14.05;;;15.80;63.80;;;;;;10472147;28;20475;-70
2022/03/25 13:13:01;;;;;;;32.85;12.10;;;15.90;63.20;;;;;;10481028;28;20040;-72
2022/03/25 13:18:08;;;;;;;30.58;12.45;;;16.00;62.60;;;;;;10486727;28;20036;-72
2022/03/25 13:23:13;;;;;;;28.10;11.38;;;16.10;62.50;;;;;;10490636;28;20455;-74
2022/03/25 13:28:22;;;;;;;23.15;10.25;;;16.10;63.20;;;;;;10490506;28;20024;-72
2022/03/25 13:33:24;;;;;;;28.35;11.80;;;16.00;63.80;;;;;;10489633;28;20048;-63
2022/03/25 13:38:36;;;;;;;20.38;9.57;;;15.90;64.50;;;;;;10483748;28;20040;-75
2022/03/25 13:43:42;;;;;;;23.33;8.57;;;15.80;64.80;;;;;;10488228;28;20036;-65
2022/03/25 13:48:47;;;;;;;25.05;9.32;;;15.80;65.20;;;;;;10490609;28;20032;-62
2022/03/25 13:53:48;;;;;;;20.63;8.80;;;15.80;65.50;;;;;;10487684;28;20047;-69
2022/03/25 13:58:56;;;;;;;19.75;8.48;;;15.80;65.50;;;;;;10487966;28;20040;-70
2022/03/25 14:04:10;;;;;;;20.58;8.77;;;15.90;65.50;;;;;;10488744;28;20060;-64
2022/03/25 14:09:32;;;;;;;15.65;7.60;;;16.00;65.80;;;;;;10487552;28;20051;-66
2022/03/25 14:14:34;;;;;;;15.65;7.38;;;16.00;65.80;;;;;;10478676;28;20436;-63
2022/03/25 14:19:36;;;;;;;16.73;7.75;;;16.10;66.10;;;;;;10475769;28;20060;-62
2022/03/25 14:24:38;;;;;;;17.65;8.18;;;16.20;66.20;;;;;;10485982;28;20036;-63
2022/03/25 14:29:40;;;;;;;16.45;7.47;;;16.20;66.30;;;;;;10487858;28;20017;-62
2022/03/25 14:34:41;;;;;;;14.80;7.10;;;16.30;66.40;;;;;;10440202;28;20055;-62
2022/03/25 14:39:42;;;;;;;15.43;6.95;;;16.40;66.40;;;;;;10452867;28;20036;-67
2022/03/25 14:44:45;;;;;;;15.85;6.68;;;16.50;66.50;;;;;;10467157;28;20028;-62
2022/03/25 14:49:46;;;;;;;9.73;4.47;;;16.60;66.50;;;;;;10474245;28;20056;-66
2022/03/25 14:54:47;;;;;;;17.63;5.95;;;16.70;64.60;;;;;;10470754;28;20127;-68
2022/03/25 14:59:49;;;;;;;12.35;5.25;;;17.00;62.10;;;;;;10471799;28;20020;-69
2022/03/25 15:04:50;;;;;;;12.25;4.35;;;17.20;59.60;;;;;;10466902;28;20154;-67
2022/03/25 15:09:50;;;;;;;16.85;5.20;;;17.30;57.90;;;;;;10467394;28;20058;-66
2022/03/25 15:14:51;;;;;;;13.90;4.78;;;17.50;57.70;;;;;;10466495;28;20490;-70
2022/03/25 15:19:52;;;;;;;15.82;5.50;;;17.60;57.20;;;;;;10483847;28;20037;-71
2022/03/25 15:24:52;;;;;;;17.75;6.38;;;17.40;56.10;;;;;;10483354;28;20024;-73
2022/03/25 15:35:13;;;;;;;10.93;5.45;;;16.90;56.60;;;;;;10483096;28;20140;-71
2022/03/25 15:40:15;;;;;;;13.52;6.85;;;16.80;56.90;;;;;;10483184;28;20058;-67
2022/03/25 15:45:16;;;;;;;16.33;7.03;;;16.70;56.80;;;;;;10476710;28;20064;-69
2022/03/25 15:50:17;;;;;;;17.15;6.85;;;16.70;56.40;;;;;;10475494;28;20714;-69
2022/03/25 15:55:20;;;;;;;25.48;9.75;;;16.80;55.80;;;;;;10472959;28;20045;-66
2022/03/25 16:00:23;;;;;;;25.90;7.97;;;16.60;56.00;;;;;;10479951;28;20113;-66
2022/03/25 16:05:25;;;;;;;19.38;7.90;;;16.50;55.90;;;;;;10445908;28;20036;-71
2022/03/25 16:10:26;;;;;;;19.70;7.38;;;16.40;55.70;;;;;;10448020;28;20090;-65
2022/03/25 16:15:27;;;;;;;16.92;7.13;;;16.30;55.10;;;;;;10448538;28;20079;-70
2022/03/25 16:20:28;;;;;;;21.15;8.50;;;16.20;55.50;;;;;;10434208;28;20024;-68
2022/03/25 16:25:31;;;;;;;18.85;7.40;;;16.20;55.60;;;;;;10442836;28;20017;-68
2022/03/25 16:30:34;;;;;;;19.55;8.48;;;16.10;55.60;;;;;;10451275;28;20045;-62
2022/03/25 16:35:35;;;;;;;22.45;9.38;;;16.00;55.20;;;;;;10473052;28;20048;-72
2022/03/25 16:40:39;;;;;;;25.92;9.50;;;16.00;55.30;;;;;;10483753;28;20020;-63
2022/03/25 16:45:40;;;;;;;20.05;9.38;;;15.90;55.20;;;;;;10484459;28;20023;-61
2022/03/25 16:50:41;;;;;;;23.50;10.77;;;15.80;55.20;;;;;;10480583;28;20020;-63
2022/03/25 16:55:42;;;;;;;20.85;8.95;;;15.70;55.40;;;;;;10481602;28;20090;-63
2022/03/25 17:00:43;;;;;;;18.90;8.55;;;15.60;55.40;;;;;;10483616;28;20041;-65
2022/03/25 17:05:44;;;;;;;26.08;9.50;;;15.40;55.80;;;;;;10482034;28;20086;-62
2022/03/25 17:10:45;;;;;;;24.70;10.68;;;15.30;55.90;;;;;;10481697;28;20020;-73
2022/03/25 17:15:46;;;;;;;24.17;11.23;;;15.20;56.30;;;;;;10476345;28;20044;-64
2022/03/25 17:20:47;;;;;;;28.33;12.13;;;15.10;56.80;;;;;;10461334;28;20102;-64
2022/03/25 17:25:48;;;;;;;23.77;10.60;;;15.00;57.00;;;;;;10482980;28;20028;-63
2022/03/25 17:30:50;;;;;;;26.35;10.98;;;14.90;57.30;;;;;;10480948;28;20048;-64
2022/03/25 17:35:50;;;;;;;22.83;9.30;;;14.70;57.50;;;;;;10482839;28;20045;-60
2022/03/25 17:40:51;;;;;;;27.75;10.95;;;14.60;57.80;;;;;;10482600;28;20045;-72
2022/03/25 17:45:53;;;;;;;19.85;9.23;;;14.40;58.00;;;;;;10473293;28;20435;-69
2022/03/25 17:50:57;;;;;;;24.73;8.88;;;14.30;58.70;;;;;;10479475;28;20486;-67
2022/03/25 17:55:59;;;;;;;25.08;10.20;;;14.20;59.10;;;;;;10470879;28;20043;-68
2022/03/25 18:01:01;;;;;;;22.02;9.10;;;14.10;59.70;;;;;;10472154;28;20067;-66
2022/03/25 18:06:02;;;;;;;21.83;9.32;;;14.00;60.20;;;;;;10451222;28;20126;-65
2022/03/25 18:11:03;;;;;;;20.33;8.93;;;14.20;60.50;;;;;;10481476;28;20029;-62
2022/03/25 18:16:04;;;;;;;19.58;8.70;;;14.40;60.50;;;;;;10480808;28;20055;-70
2022/03/25 18:21:04;;;;;;;21.75;8.93;;;14.60;60.70;;;;;;10486066;28;20058;-68
2022/03/25 18:26:05;;;;;;;19.80;8.57;;;14.60;60.90;;;;;;10488542;28;20273;-68
2022/03/25 18:31:06;;;;;;;16.15;7.93;;;14.80;61.10;;;;;;10477110;28;20407;-66
2022/03/25 18:36:07;;;;;;;18.40;8.57;;;14.80;61.30;;;;;;10477066;28;20430;-66
2022/03/25 18:41:07;;;;;;;15.77;7.57;;;14.80;61.70;;;;;;10470046;28;20119;-64
2022/03/25 18:46:08;;;;;;;16.70;8.43;;;14.90;62.60;;;;;;10455056;28;20037;-68
2022/03/25 18:51:11;;;;;;;17.58;7.65;;;14.80;62.10;;;;;;10457094;28;20034;-64
2022/03/25 18:56:12;;;;;;;17.10;7.97;;;14.90;62.30;;;;;;10480470;28;20550;-63
2022/03/25 19:01:16;;;;;;;19.10;8.18;;;14.90;62.50;;;;;;10475525;28;20132;-68
2022/03/25 19:06:17;;;;;;;18.52;7.70;;;14.80;62.60;;;;;;10476189;28;20033;-66
2022/03/25 19:11:20;;;;;;;15.18;7.20;;;14.80;62.80;;;;;;10481436;28;20024;-65
2022/03/25 19:16:22;;;;;;;13.93;7.35;;;14.80;63.00;;;;;;10473554;28;20037;-67
2022/03/25 19:21:24;;;;;;;16.38;7.13;;;14.80;63.10;;;;;;10479348;28;20434;-67
2022/03/25 19:26:25;;;;;;;18.25;7.82;;;14.80;63.20;;;;;;10477043;28;20381;-67
2022/03/25 19:31:26;;;;;;;14.32;6.90;;;14.70;63.20;;;;;;10473722;28;20147;-67
2022/03/25 19:36:27;;;;;;;17.13;8.13;;;14.70;63.40;;;;;;10465563;28;20040;-67
2022/03/25 19:41:29;;;;;;;15.20;7.88;;;14.70;63.50;;;;;;10477509;28;20036;-67
2022/03/25 19:46:30;;;;;;;17.35;8.40;;;14.60;64.10;;;;;;10461657;28;20470;-66
2022/03/25 19:51:31;;;;;;;15.95;8.15;;;14.60;63.60;;;;;;10470255;28;20399;-64
2022/03/25 19:56:33;;;;;;;20.80;9.48;;;14.50;63.70;;;;;;10475732;28;20100;-64
2022/03/25 20:01:35;;;;;;;16.02;7.63;;;14.60;63.80;;;;;;10474285;28;20551;-67
2022/03/25 20:06:36;;;;;;;21.95;9.82;;;14.50;63.80;;;;;;10471302;28;20499;-68
2022/03/25 20:11:39;;;;;;;16.75;7.32;;;14.50;64.00;;;;;;10473161;28;20131;-67
2022/03/25 20:16:40;;;;;;;14.40;6.93;;;14.40;64.00;;;;;;10474339;28;20027;-66
2022/03/25 20:21:41;;;;;;;19.33;9.30;;;14.40;64.10;;;;;;10471876;28;20028;-68
2022/03/25 20:26:41;;;;;;;15.80;7.85;;;14.40;64.20;;;;;;10457568;28;20015;-67
2022/03/25 20:31:44;;;;;;;15.70;8.00;;;14.30;64.20;;;;;;10479276;28;20378;-71
2022/03/25 20:36:45;;;;;;;16.25;7.47;;;14.30;64.30;;;;;;10467534;28;20055;-70
2022/03/25 20:41:51;;;;;;;15.77;7.32;;;14.30;64.40;;;;;;10476599;28;20047;-68
2022/03/25 20:46:53;;;;;;;19.73;8.40;;;14.20;64.40;;;;;;10475994;28;20078;-66
2022/03/25 20:51:55;;;;;;;14.10;7.90;;;14.20;64.40;;;;;;10469445;28;20037;-68
2022/03/25 20:56:55;;;;;;;12.73;6.55;;;14.20;64.50;;;;;;10468996;28;20033;-68
2022/03/25 21:01:56;;;;;;;14.00;7.25;;;14.10;64.40;;;;;;10460764;28;20044;-67
2022/03/25 21:06:58;;;;;;;15.57;7.40;;;14.10;64.40;;;;;;10465121;28;20107;-68
2022/03/25 21:12:01;;;;;;;17.45;7.60;;;14.00;64.30;;;;;;10477538;28;20254;-66
2022/03/25 21:17:03;;;;;;;14.57;7.03;;;14.00;64.30;;;;;;10475187;28;20270;-66
2022/03/25 21:22:04;;;;;;;15.68;7.63;;;14.00;64.20;;;;;;10468529;28;20126;-68
2022/03/25 21:27:05;;;;;;;17.02;6.93;;;13.90;64.20;;;;;;10476033;28;20021;-68
2022/03/25 21:32:06;;;;;;;15.40;7.22;;;13.90;64.10;;;;;;10477263;28;20048;-67
2022/03/25 21:37:07;;;;;;;16.45;7.10;;;13.90;64.10;;;;;;10434579;28;20139;-67
2022/03/25 21:42:08;;;;;;;17.23;7.07;;;13.80;64.00;;;;;;10479947;28;20351;-68
2022/03/25 21:47:09;;;;;;;12.63;6.20;;;13.80;64.00;;;;;;10477504;28;20040;-65
2022/03/25 21:52:11;;;;;;;14.05;6.63;;;13.80;64.00;;;;;;10482473;28;20038;-64
2022/03/25 21:57:12;;;;;;;14.13;6.97;;;13.70;64.00;;;;;;10484250;28;20103;-66
2022/03/25 22:02:13;;;;;;;17.58;7.10;;;13.70;64.00;;;;;;10474225;28;20460;-65
2022/03/25 22:07:13;;;;;;;16.48;7.03;;;13.60;63.90;;;;;;10483818;28;20071;-66
2022/03/25 22:12:14;;;;;;;16.48;7.80;;;13.60;63.90;;;;;;10484326;28;20036;-67
2022/03/25 22:17:15;;;;;;;13.73;6.38;;;13.60;63.90;;;;;;10483587;28;20070;-67
2022/03/25 22:22:16;;;;;;;13.95;7.40;;;13.50;63.90;;;;;;10478749;28;20045;-64
2022/03/25 22:27:16;;;;;;;13.57;7.35;;;13.50;63.90;;;;;;10483582;28;20111;-67
2022/03/25 22:32:17;;;;;;;12.95;7.10;;;13.50;63.90;;;;;;10482636;28;20382;-67
2022/03/25 22:37:19;;;;;;;15.90;7.78;;;13.40;63.90;;;;;;10480764;28;20431;-63
2022/03/25 22:42:20;;;;;;;14.55;7.20;;;13.40;63.90;;;;;;10479406;28;20097;-66
2022/03/25 22:47:22;;;;;;;17.20;7.72;;;13.30;63.90;;;;;;10456961;28;20021;-65
2022/03/25 22:52:23;;;;;;;16.17;7.47;;;13.30;63.90;;;;;;10451711;28;20037;-66
2022/03/25 22:57:24;;;;;;;14.88;7.43;;;13.20;63.90;;;;;;10460575;28;20024;-67
2022/03/25 23:02:25;;;;;;;16.50;8.15;;;13.20;64.00;;;;;;10459867;28;20119;-66
2022/03/25 23:07:25;;;;;;;16.42;7.43;;;13.20;64.00;;;;;;10480059;28;20115;-66
2022/03/25 23:12:26;;;;;;;18.25;8.38;;;13.20;64.00;;;;;;10485618;28;20079;-65
2022/03/25 23:17:27;;;;;;;20.27;8.20;;;13.10;64.00;;;;;;10486960;28;20020;-66
2022/03/25 23:22:28;;;;;;;18.27;8.35;;;13.10;64.00;;;;;;10460733;28;20437;-67
2022/03/25 23:27:28;;;;;;;19.30;8.85;;;13.00;64.00;;;;;;10486990;28;20032;-66
2022/03/25 23:32:29;;;;;;;23.63;9.70;;;13.00;64.00;;;;;;10485580;28;20036;-67
2022/03/25 23:37:31;;;;;;;18.08;8.80;;;13.00;64.00;;;;;;10468595;28;20491;-65
2022/03/25 23:42:34;;;;;;;20.48;9.00;;;12.90;64.10;;;;;;10486284;28;20031;-65
2022/03/25 23:47:36;;;;;;;19.55;9.13;;;12.90;64.20;;;;;;10479944;28;20031;-66
2022/03/25 23:52:38;;;;;;;20.95;10.02;;;12.90;64.20;;;;;;10479267;28;20033;-66
2022/03/25 23:57:39;;;;;;;24.33;9.95;;;12.90;64.20;;;;;;10485176;28;20020;-65
